sensor_id;sensor_type;location;lat;lon;timestamp;pressure;altitude;pressure_sealevel;temperature;humidity
61345;BME280;47216;42.656;23.232;2023-02-05T00:00:24;93950.22;;;-2.22;71.82
61345;BME280;47216;42.656;23.232;2023-02-05T00:02:51;93946.47;;;-2.03;73.09
61345;BME280;47216;42.656;23.232;2023-02-05T00:05:19;93951.59;;;-1.80;71.80
61345;BME280;47216;42.656;23.232;2023-02-05T00:07:46;93956.41;;;-1.77;71.34
61345;BME280;47216;42.656;23.232;2023-02-05T00:10:12;93953.38;;;-1.58;71.11
61345;BME280;47216;42.656;23.232;2023-02-05T00:12:39;93962.59;;;-1.49;70.88
61345;BME280;47216;42.656;23.232;2023-02-05T00:15:06;93965.66;;;-1.76;70.89
61345;BME280;47216;42.656;23.232;2023-02-05T00:17:33;93957.03;;;-1.75;71.11
61345;BME280;47216;42.656;23.232;2023-02-05T00:20:00;93950.53;;;-1.86;70.97
61345;BME280;47216;42.656;23.232;2023-02-05T00:22:28;93959.56;;;-1.98;70.22
61345;BME280;47216;42.656;23.232;2023-02-05T00:24:55;93957.50;;;-2.03;71.26
61345;BME280;47216;42.656;23.232;2023-02-05T00:27:21;93959.00;;;-2.17;71.15
61345;BME280;47216;42.656;23.232;2023-02-05T00:29:48;93961.56;;;-2.17;70.77
61345;BME280;47216;42.656;23.232;2023-02-05T00:32:15;93956.47;;;-2.25;70.89
61345;BME280;47216;42.656;23.232;2023-02-05T00:34:42;93958.66;;;-2.53;70.82
61345;BME280;47216;42.656;23.232;2023-02-05T00:37:08;93966.28;;;-2.45;70.33
61345;BME280;47216;42.656;23.232;2023-02-05T00:39:36;93960.66;;;-2.32;70.01
61345;BME280;47216;42.656;23.232;2023-02-05T00:42:03;93974.75;;;-2.44;69.17
61345;BME280;47216;42.656;23.232;2023-02-05T00:44:30;93967.72;;;-2.50;70.10
61345;BME280;47216;42.656;23.232;2023-02-05T00:46:57;93960.22;;;-2.52;69.50
61345;BME280;47216;42.656;23.232;2023-02-05T00:49:23;93969.84;;;-2.62;69.40
61345;BME280;47216;42.656;23.232;2023-02-05T00:51:50;93973.19;;;-2.62;68.49
61345;BME280;47216;42.656;23.232;2023-02-05T00:54:17;93971.31;;;-2.68;68.42
61345;BME280;47216;42.656;23.232;2023-02-05T00:56:45;93984.84;;;-2.67;68.21
61345;BME280;47216;42.656;23.232;2023-02-05T00:59:12;93978.19;;;-2.77;68.61
61345;BME280;47216;42.656;23.232;2023-02-05T01:01:38;93974.16;;;-2.71;69.33
61345;BME280;47216;42.656;23.232;2023-02-05T01:04:05;93973.53;;;-2.73;69.14
61345;BME280;47216;42.656;23.232;2023-02-05T01:06:32;93989.78;;;-2.66;69.66
61345;BME280;47216;42.656;23.232;2023-02-05T01:08:58;93974.44;;;-2.49;69.37
61345;BME280;47216;42.656;23.232;2023-02-05T01:11:25;93981.63;;;-2.45;68.82
61345;BME280;47216;42.656;23.232;2023-02-05T01:13:53;93973.19;;;-2.54;68.86
61345;BME280;47216;42.656;23.232;2023-02-05T01:16:20;93977.59;;;-2.47;68.40
61345;BME280;47216;42.656;23.232;2023-02-05T01:18:46;93975.41;;;-2.50;69.65
61345;BME280;47216;42.656;23.232;2023-02-05T01:21:13;93970.72;;;-2.39;69.71
61345;BME280;47216;42.656;23.232;2023-02-05T01:23:40;93979.19;;;-2.38;69.29
61345;BME280;47216;42.656;23.232;2023-02-05T01:26:07;93982.50;;;-2.29;68.11
61345;BME280;47216;42.656;23.232;2023-02-05T01:28:33;93982.22;;;-2.35;68.54
61345;BME280;47216;42.656;23.232;2023-02-05T01:31:02;93979.06;;;-2.53;68.46
61345;BME280;47216;42.656;23.232;2023-02-05T01:33:28;93979.22;;;-2.46;68.95
61345;BME280;47216;42.656;23.232;2023-02-05T01:35:55;93980.25;;;-2.72;69.29
61345;BME280;47216;42.656;23.232;2023-02-05T01:38:22;93979.59;;;-2.74;69.79
61345;BME280;47216;42.656;23.232;2023-02-05T01:40:48;93983.09;;;-2.67;70.11
61345;BME280;47216;42.656;23.232;2023-02-05T01:43:15;93994.44;;;-2.86;70.48
61345;BME280;47216;42.656;23.232;2023-02-05T01:48:39;93989.81;;;-2.82;72.32
61345;BME280;47216;42.656;23.232;2023-02-05T01:51:08;93994.75;;;-2.81;71.92
61345;BME280;47216;42.656;23.232;2023-02-05T01:53:37;93999.53;;;-2.78;71.83
61345;BME280;47216;42.656;23.232;2023-02-05T01:56:05;93985.94;;;-2.62;71.85
61345;BME280;47216;42.656;23.232;2023-02-05T01:58:34;93996.78;;;-2.51;71.45
61345;BME280;47216;42.656;23.232;2023-02-05T02:01:01;93995.81;;;-2.42;70.47
61345;BME280;47216;42.656;23.232;2023-02-05T02:03:29;93999.59;;;-2.38;70.00
61345;BME280;47216;42.656;23.232;2023-02-05T02:05:58;94004.09;;;-2.40;70.99
61345;BME280;47216;42.656;23.232;2023-02-05T02:08:25;94002.50;;;-2.41;70.59
61345;BME280;47216;42.656;23.232;2023-02-05T02:10:51;94013.13;;;-2.21;70.47
61345;BME280;47216;42.656;23.232;2023-02-05T02:13:19;94014.25;;;-2.24;69.17
61345;BME280;47216;42.656;23.232;2023-02-05T02:15:46;94011.94;;;-2.58;68.16
61345;BME280;47216;42.656;23.232;2023-02-05T02:18:14;94013.97;;;-2.45;69.47
61345;BME280;47216;42.656;23.232;2023-02-05T02:21:01;94016.69;;;-2.39;69.16
61345;BME280;47216;42.656;23.232;2023-02-05T02:23:34;94020.78;;;-2.21;69.51
61345;BME280;47216;42.656;23.232;2023-02-05T02:26:15;94019.28;;;-2.47;66.69
61345;BME280;47216;42.656;23.232;2023-02-05T02:28:50;94013.81;;;-2.44;66.39
61345;BME280;47216;42.656;23.232;2023-02-05T02:31:21;94010.81;;;-2.56;66.37
61345;BME280;47216;42.656;23.232;2023-02-05T02:33:54;94011.50;;;-2.78;66.76
61345;BME280;47216;42.656;23.232;2023-02-05T02:36:23;94011.19;;;-2.83;67.16
61345;BME280;47216;42.656;23.232;2023-02-05T02:38:52;94020.72;;;-2.69;67.58
61345;BME280;47216;42.656;23.232;2023-02-05T02:41:22;94014.19;;;-2.63;66.59
61345;BME280;47216;42.656;23.232;2023-02-05T02:43:53;94027.41;;;-2.51;67.18
61345;BME280;47216;42.656;23.232;2023-02-05T02:46:22;94021.97;;;-2.48;66.39
61345;BME280;47216;42.656;23.232;2023-02-05T02:48:51;94028.72;;;-2.72;66.66
61345;BME280;47216;42.656;23.232;2023-02-05T02:51:19;94026.28;;;-2.49;66.45
61345;BME280;47216;42.656;23.232;2023-02-05T02:53:48;94033.78;;;-2.47;66.35
61345;BME280;47216;42.656;23.232;2023-02-05T02:56:16;94030.94;;;-2.61;66.96
61345;BME280;47216;42.656;23.232;2023-02-05T02:58:44;94034.75;;;-2.73;67.13
61345;BME280;47216;42.656;23.232;2023-02-05T03:01:14;94031.28;;;-2.72;67.15
61345;BME280;47216;42.656;23.232;2023-02-05T03:03:43;94028.69;;;-2.64;67.89
61345;BME280;47216;42.656;23.232;2023-02-05T03:06:11;94036.38;;;-2.97;67.82
61345;BME280;47216;42.656;23.232;2023-02-05T03:08:41;94040.19;;;-3.17;68.66
61345;BME280;47216;42.656;23.232;2023-02-05T03:11:11;94034.78;;;-3.06;68.87
61345;BME280;47216;42.656;23.232;2023-02-05T03:13:38;94040.84;;;-3.40;69.19
61345;BME280;47216;42.656;23.232;2023-02-05T03:16:05;94037.31;;;-3.39;70.09
61345;BME280;47216;42.656;23.232;2023-02-05T03:18:33;94042.72;;;-3.33;70.42
61345;BME280;47216;42.656;23.232;2023-02-05T03:21:02;94049.41;;;-3.49;69.60
61345;BME280;47216;42.656;23.232;2023-02-05T03:23:29;94042.09;;;-3.44;69.72
61345;BME280;47216;42.656;23.232;2023-02-05T03:25:57;94047.44;;;-3.63;69.84
61345;BME280;47216;42.656;23.232;2023-02-05T03:28:23;94045.81;;;-3.81;70.46
61345;BME280;47216;42.656;23.232;2023-02-05T03:30:52;94050.59;;;-3.77;70.55
61345;BME280;47216;42.656;23.232;2023-02-05T03:33:24;94049.53;;;-3.67;70.72
61345;BME280;47216;42.656;23.232;2023-02-05T03:35:56;94044.63;;;-3.52;70.75
61345;BME280;47216;42.656;23.232;2023-02-05T03:38:32;94048.47;;;-3.40;70.62
61345;BME280;47216;42.656;23.232;2023-02-05T03:41:06;94051.16;;;-3.49;70.19
61345;BME280;47216;42.656;23.232;2023-02-05T03:43:38;94050.38;;;-3.42;69.98
61345;BME280;47216;42.656;23.232;2023-02-05T03:46:13;94049.44;;;-3.32;69.67
61345;BME280;47216;42.656;23.232;2023-02-05T03:48:50;94053.56;;;-3.31;69.64
61345;BME280;47216;42.656;23.232;2023-02-05T03:51:25;94048.00;;;-3.27;69.62
61345;BME280;47216;42.656;23.232;2023-02-05T03:53:59;94058.19;;;-3.27;69.42
61345;BME280;47216;42.656;23.232;2023-02-05T03:56:30;94050.56;;;-3.19;68.80
61345;BME280;47216;42.656;23.232;2023-02-05T03:58:59;94058.53;;;-3.13;69.22
61345;BME280;47216;42.656;23.232;2023-02-05T04:01:26;94062.53;;;-3.11;69.28
61345;BME280;47216;42.656;23.232;2023-02-05T04:03:54;94061.41;;;-2.92;69.15
61345;BME280;47216;42.656;23.232;2023-02-05T04:06:21;94060.63;;;-2.92;68.49
61345;BME280;47216;42.656;23.232;2023-02-05T04:08:49;94066.50;;;-2.92;68.22
61345;BME280;47216;42.656;23.232;2023-02-05T04:11:15;94070.66;;;-2.83;68.43
61345;BME280;47216;42.656;23.232;2023-02-05T04:13:42;94075.59;;;-2.89;68.59
61345;BME280;47216;42.656;23.232;2023-02-05T04:16:09;94078.47;;;-2.84;67.83
61345;BME280;47216;42.656;23.232;2023-02-05T04:18:35;94075.28;;;-2.70;68.10
61345;BME280;47216;42.656;23.232;2023-02-05T04:21:02;94064.44;;;-2.80;67.03
61345;BME280;47216;42.656;23.232;2023-02-05T04:23:29;94074.97;;;-2.91;67.66
61345;BME280;47216;42.656;23.232;2023-02-05T04:25:58;94086.47;;;-2.79;67.36
61345;BME280;47216;42.656;23.232;2023-02-05T04:28:24;94079.09;;;-2.82;67.45
61345;BME280;47216;42.656;23.232;2023-02-05T04:30:51;94074.66;;;-2.72;67.40
61345;BME280;47216;42.656;23.232;2023-02-05T04:33:18;94074.97;;;-2.83;67.18
61345;BME280;47216;42.656;23.232;2023-02-05T04:35:45;94078.78;;;-3.04;67.31
61345;BME280;47216;42.656;23.232;2023-02-05T04:38:11;94084.69;;;-2.95;67.74
61345;BME280;47216;42.656;23.232;2023-02-05T04:40:38;94084.63;;;-3.36;67.95
61345;BME280;47216;42.656;23.232;2023-02-05T04:43:06;94081.28;;;-3.28;68.83
61345;BME280;47216;42.656;23.232;2023-02-05T04:45:34;94083.84;;;-3.28;68.11
61345;BME280;47216;42.656;23.232;2023-02-05T04:48:01;94086.88;;;-3.33;68.50
61345;BME280;47216;42.656;23.232;2023-02-05T04:50:30;94085.44;;;-3.35;69.09
61345;BME280;47216;42.656;23.232;2023-02-05T04:52:57;94094.31;;;-3.48;69.52
61345;BME280;47216;42.656;23.232;2023-02-05T04:55:26;94085.91;;;-3.32;69.80
61345;BME280;47216;42.656;23.232;2023-02-05T04:57:53;94090.91;;;-3.14;69.42
61345;BME280;47216;42.656;23.232;2023-02-05T05:00:21;94090.28;;;-3.00;69.09
61345;BME280;47216;42.656;23.232;2023-02-05T05:02:48;94105.59;;;-2.83;69.09
61345;BME280;47216;42.656;23.232;2023-02-05T05:05:14;94098.56;;;-2.65;68.92
61345;BME280;47216;42.656;23.232;2023-02-05T05:07:41;94102.22;;;-2.59;69.00
61345;BME280;47216;42.656;23.232;2023-02-05T05:10:08;94099.69;;;-2.84;68.18
61345;BME280;47216;42.656;23.232;2023-02-05T05:12:35;94100.47;;;-2.75;68.42
61345;BME280;47216;42.656;23.232;2023-02-05T05:15:02;94095.88;;;-2.63;68.39
61345;BME280;47216;42.656;23.232;2023-02-05T05:17:31;94096.97;;;-2.49;69.03
61345;BME280;47216;42.656;23.232;2023-02-05T05:19:58;94108.13;;;-2.42;68.50
61345;BME280;47216;42.656;23.232;2023-02-05T05:22:25;94113.25;;;-2.59;68.41
61345;BME280;47216;42.656;23.232;2023-02-05T05:24:52;94112.44;;;-3.00;68.72
61345;BME280;47216;42.656;23.232;2023-02-05T05:27:19;94119.59;;;-3.04;68.85
61345;BME280;47216;42.656;23.232;2023-02-05T05:29:47;94124.81;;;-3.30;69.67
61345;BME280;47216;42.656;23.232;2023-02-05T05:32:14;94131.06;;;-3.16;70.48
61345;BME280;47216;42.656;23.232;2023-02-05T05:34:42;94130.13;;;-3.07;70.33
61345;BME280;47216;42.656;23.232;2023-02-05T05:37:09;94127.88;;;-3.18;70.01
61345;BME280;47216;42.656;23.232;2023-02-05T05:39:36;94129.81;;;-2.96;70.07
61345;BME280;47216;42.656;23.232;2023-02-05T05:42:20;94128.53;;;-2.75;70.44
61345;BME280;47216;42.656;23.232;2023-02-05T05:45:04;94136.22;;;-2.67;69.36
61345;BME280;47216;42.656;23.232;2023-02-05T05:47:31;94143.22;;;-2.53;69.99
61345;BME280;47216;42.656;23.232;2023-02-05T05:49:59;94146.75;;;-2.37;69.89
61345;BME280;47216;42.656;23.232;2023-02-05T05:52:26;94145.44;;;-2.25;69.75
61345;BME280;47216;42.656;23.232;2023-02-05T05:54:52;94147.66;;;-2.14;69.30
61345;BME280;47216;42.656;23.232;2023-02-05T05:57:19;94148.16;;;-2.10;68.94
61345;BME280;47216;42.656;23.232;2023-02-05T05:59:46;94154.66;;;-1.99;68.26
61345;BME280;47216;42.656;23.232;2023-02-05T06:02:13;94155.31;;;-1.89;67.75
61345;BME280;47216;42.656;23.232;2023-02-05T06:04:39;94161.50;;;-1.75;67.56
61345;BME280;47216;42.656;23.232;2023-02-05T06:07:08;94158.13;;;-1.67;67.37
61345;BME280;47216;42.656;23.232;2023-02-05T06:09:34;94158.91;;;-1.67;67.06
61345;BME280;47216;42.656;23.232;2023-02-05T06:12:01;94161.44;;;-1.59;66.52
61345;BME280;47216;42.656;23.232;2023-02-05T06:14:28;94170.53;;;-1.56;66.84
61345;BME280;47216;42.656;23.232;2023-02-05T06:16:55;94167.34;;;-1.58;66.95
61345;BME280;47216;42.656;23.232;2023-02-05T06:19:22;94166.38;;;-1.57;66.06
61345;BME280;47216;42.656;23.232;2023-02-05T06:21:49;94181.72;;;-1.49;66.22
61345;BME280;47216;42.656;23.232;2023-02-05T06:24:17;94180.22;;;-1.43;65.98
61345;BME280;47216;42.656;23.232;2023-02-05T06:26:44;94190.31;;;-1.42;65.89
61345;BME280;47216;42.656;23.232;2023-02-05T06:29:10;94190.59;;;-1.37;67.01
61345;BME280;47216;42.656;23.232;2023-02-05T06:31:37;94198.91;;;-1.35;65.74
61345;BME280;47216;42.656;23.232;2023-02-05T06:34:04;94193.78;;;-1.35;66.72
61345;BME280;47216;42.656;23.232;2023-02-05T06:36:31;94206.91;;;-0.67;76.19
61345;BME280;47216;42.656;23.232;2023-02-05T06:38:57;94196.66;;;-0.67;70.38
61345;BME280;47216;42.656;23.232;2023-02-05T06:41:26;94192.91;;;-0.79;66.90
61345;BME280;47216;42.656;23.232;2023-02-05T06:43:53;94199.38;;;-0.92;64.74
61345;BME280;47216;42.656;23.232;2023-02-05T06:46:19;94193.66;;;-1.02;64.08
61345;BME280;47216;42.656;23.232;2023-02-05T06:48:46;94209.50;;;-1.07;65.15
61345;BME280;47216;42.656;23.232;2023-02-05T06:51:13;94206.50;;;-1.10;65.07
61345;BME280;47216;42.656;23.232;2023-02-05T06:53:40;94217.06;;;-1.13;64.94
61345;BME280;47216;42.656;23.232;2023-02-05T06:56:07;94220.59;;;-1.14;64.41
61345;BME280;47216;42.656;23.232;2023-02-05T06:58:35;94222.06;;;-1.20;65.08
61345;BME280;47216;42.656;23.232;2023-02-05T07:01:02;94216.13;;;-1.20;65.65
61345;BME280;47216;42.656;23.232;2023-02-05T07:03:29;94221.25;;;-1.20;65.12
61345;BME280;47216;42.656;23.232;2023-02-05T07:06:00;94221.25;;;-1.20;64.66
61345;BME280;47216;42.656;23.232;2023-02-05T07:08:26;94227.69;;;-1.33;65.32
61345;BME280;47216;42.656;23.232;2023-02-05T07:10:53;94221.78;;;-1.33;65.09
61345;BME280;47216;42.656;23.232;2023-02-05T07:13:20;94224.78;;;-1.30;64.98
61345;BME280;47216;42.656;23.232;2023-02-05T07:15:48;94231.53;;;-1.37;64.77
61345;BME280;47216;42.656;23.232;2023-02-05T07:18:15;94225.47;;;-1.36;64.66
61345;BME280;47216;42.656;23.232;2023-02-05T07:20:42;94228.47;;;-1.32;65.32
61345;BME280;47216;42.656;23.232;2023-02-05T07:23:08;94238.22;;;-1.28;65.91
61345;BME280;47216;42.656;23.232;2023-02-05T07:25:35;94228.47;;;-1.32;65.34
61345;BME280;47216;42.656;23.232;2023-02-05T07:28:02;94229.16;;;-1.38;64.95
61345;BME280;47216;42.656;23.232;2023-02-05T07:30:29;94233.78;;;-1.42;64.76
61345;BME280;47216;42.656;23.232;2023-02-05T07:32:57;94238.91;;;-1.42;65.53
61345;BME280;47216;42.656;23.232;2023-02-05T07:35:27;94242.25;;;-1.33;65.52
61345;BME280;47216;42.656;23.232;2023-02-05T07:37:54;94233.91;;;-1.27;65.33
61345;BME280;47216;42.656;23.232;2023-02-05T07:40:21;94234.03;;;-1.20;65.44
61345;BME280;47216;42.656;23.232;2023-02-05T07:42:48;94236.59;;;-1.20;65.93
61345;BME280;47216;42.656;23.232;2023-02-05T07:45:15;94239.16;;;-1.20;65.61
61345;BME280;47216;42.656;23.232;2023-02-05T07:47:41;94247.63;;;-1.20;66.47
61345;BME280;47216;42.656;23.232;2023-02-05T07:50:10;94245.25;;;-1.21;65.78
61345;BME280;47216;42.656;23.232;2023-02-05T07:52:36;94259.00;;;-1.22;66.26
61345;BME280;47216;42.656;23.232;2023-02-05T07:55:03;94263.78;;;-1.19;67.01
61345;BME280;47216;42.656;23.232;2023-02-05T07:57:30;94273.03;;;-1.10;66.94
61345;BME280;47216;42.656;23.232;2023-02-05T07:59:57;94262.44;;;-1.07;67.07
61345;BME280;47216;42.656;23.232;2023-02-05T08:02:23;94263.06;;;-0.97;66.84
61345;BME280;47216;42.656;23.232;2023-02-05T08:04:50;94275.81;;;-0.89;66.67
61345;BME280;47216;42.656;23.232;2023-02-05T08:07:19;94278.22;;;-0.87;66.20
61345;BME280;47216;42.656;23.232;2023-02-05T08:09:45;94271.97;;;-0.85;66.01
61345;BME280;47216;42.656;23.232;2023-02-05T08:12:12;94280.78;;;-0.87;65.88
61345;BME280;47216;42.656;23.232;2023-02-05T08:14:39;94276.59;;;-0.80;65.56
61345;BME280;47216;42.656;23.232;2023-02-05T08:17:06;94277.88;;;-0.84;65.73
61345;BME280;47216;42.656;23.232;2023-02-05T08:19:32;94285.06;;;-0.79;65.21
61345;BME280;47216;42.656;23.232;2023-02-05T08:21:59;94283.28;;;-0.79;65.61
61345;BME280;47216;42.656;23.232;2023-02-05T08:24:27;94276.88;;;-0.75;65.89
61345;BME280;47216;42.656;23.232;2023-02-05T08:26:56;94284.34;;;-0.65;65.48
61345;BME280;47216;42.656;23.232;2023-02-05T08:29:22;94281.97;;;-0.67;65.86
61345;BME280;47216;42.656;23.232;2023-02-05T08:31:49;94292.38;;;-0.68;65.13
61345;BME280;47216;42.656;23.232;2023-02-05T08:34:16;94292.03;;;-0.65;65.71
61345;BME280;47216;42.656;23.232;2023-02-05T08:36:43;94290.09;;;-0.63;65.49
61345;BME280;47216;42.656;23.232;2023-02-05T08:39:09;94294.28;;;-0.62;65.36
61345;BME280;47216;42.656;23.232;2023-02-05T08:41:37;94297.75;;;-0.55;65.32
61345;BME280;47216;42.656;23.232;2023-02-05T08:44:04;94296.16;;;-0.56;65.25
61345;BME280;47216;42.656;23.232;2023-02-05T08:46:31;94295.50;;;-0.50;65.29
61345;BME280;47216;42.656;23.232;2023-02-05T08:48:58;94299.31;;;-0.46;64.96
61345;BME280;47216;42.656;23.232;2023-02-05T08:51:25;94298.63;;;-0.39;64.70
61345;BME280;47216;42.656;23.232;2023-02-05T08:53:52;94296.88;;;-0.39;64.33
61345;BME280;47216;42.656;23.232;2023-02-05T08:56:20;94297.97;;;-0.33;64.21
61345;BME280;47216;42.656;23.232;2023-02-05T08:58:48;94298.94;;;-0.34;63.16
61345;BME280;47216;42.656;23.232;2023-02-05T09:01:15;94303.06;;;-0.25;62.04
61345;BME280;47216;42.656;23.232;2023-02-05T09:03:43;94314.09;;;-0.25;61.62
61345;BME280;47216;42.656;23.232;2023-02-05T09:06:10;94316.66;;;-0.25;61.64
61345;BME280;47216;42.656;23.232;2023-02-05T09:08:37;94315.53;;;-0.30;61.15
61345;BME280;47216;42.656;23.232;2023-02-05T09:11:04;94322.63;;;-0.32;60.44
61345;BME280;47216;42.656;23.232;2023-02-05T09:13:31;94312.38;;;-0.32;59.75
61345;BME280;47216;42.656;23.232;2023-02-05T09:15:59;94323.41;;;-0.32;59.01
61345;BME280;47216;42.656;23.232;2023-02-05T09:18:26;94325.00;;;-0.31;58.42
61345;BME280;47216;42.656;23.232;2023-02-05T09:20:53;94328.41;;;-0.38;58.43
61345;BME280;47216;42.656;23.232;2023-02-05T09:23:20;94330.97;;;-0.38;58.88
61345;BME280;47216;42.656;23.232;2023-02-05T09:25:47;94330.00;;;-0.37;59.03
61345;BME280;47216;42.656;23.232;2023-02-05T09:28:14;94328.69;;;-0.33;58.30
61345;BME280;47216;42.656;23.232;2023-02-05T09:30:41;94333.31;;;-0.29;57.84
61345;BME280;47216;42.656;23.232;2023-02-05T09:33:10;94336.16;;;-0.24;57.92
61345;BME280;47216;42.656;23.232;2023-02-05T09:35:37;94344.03;;;-0.25;57.16
61345;BME280;47216;42.656;23.232;2023-02-05T09:38:03;94346.28;;;-0.30;57.04
61345;BME280;47216;42.656;23.232;2023-02-05T09:40:31;94340.13;;;-0.44;56.21
61345;BME280;47216;42.656;23.232;2023-02-05T09:43:02;94347.66;;;-0.43;56.70
61345;BME280;47216;42.656;23.232;2023-02-05T09:45:31;94347.50;;;-0.49;57.09
61345;BME280;47216;42.656;23.232;2023-02-05T09:48:02;94345.75;;;-0.49;57.06
61345;BME280;47216;42.656;23.232;2023-02-05T09:50:36;94335.69;;;-0.50;57.39
61345;BME280;47216;42.656;23.232;2023-02-05T09:53:05;94342.56;;;-0.51;56.75
61345;BME280;47216;42.656;23.232;2023-02-05T09:55:36;94345.59;;;-0.47;56.24
61345;BME280;47216;42.656;23.232;2023-02-05T09:58:04;94342.38;;;-0.49;55.78
61345;BME280;47216;42.656;23.232;2023-02-05T10:00:33;94337.34;;;-0.66;56.02
61345;BME280;47216;42.656;23.232;2023-02-05T10:03:05;94344.19;;;-0.58;56.74
61345;BME280;47216;42.656;23.232;2023-02-05T10:05:37;94341.03;;;-0.68;56.03
61345;BME280;47216;42.656;23.232;2023-02-05T10:08:07;94343.97;;;-0.88;55.66
61345;BME280;47216;42.656;23.232;2023-02-05T10:10:38;94342.38;;;-0.89;56.55
61345;BME280;47216;42.656;23.232;2023-02-05T10:13:09;94343.97;;;-0.88;55.94
61345;BME280;47216;42.656;23.232;2023-02-05T10:18:35;94349.91;;;-0.87;56.52
61345;BME280;47216;42.656;23.232;2023-02-05T10:21:09;94345.56;;;-0.87;58.09
61345;BME280;47216;42.656;23.232;2023-02-05T10:23:50;94348.28;;;-0.80;57.23
61345;BME280;47216;42.656;23.232;2023-02-05T10:26:18;94347.78;;;-0.75;57.90
61345;BME280;47216;42.656;23.232;2023-02-05T10:28:54;94351.28;;;-0.68;56.84
61345;BME280;47216;42.656;23.232;2023-02-05T10:31:26;94351.44;;;-0.70;55.85
61345;BME280;47216;42.656;23.232;2023-02-05T10:34:01;94357.69;;;-0.72;55.60
61345;BME280;47216;42.656;23.232;2023-02-05T10:36:32;94359.34;;;-0.88;55.60
61345;BME280;47216;42.656;23.232;2023-02-05T10:38:59;94354.34;;;-0.81;56.41
61345;BME280;47216;42.656;23.232;2023-02-05T10:41:27;94351.63;;;-0.79;56.36
61345;BME280;47216;42.656;23.232;2023-02-05T10:43:58;94348.97;;;-0.94;55.17
61345;BME280;47216;42.656;23.232;2023-02-05T10:46:29;94344.28;;;-0.91;55.79
61345;BME280;47216;42.656;23.232;2023-02-05T10:48:58;94344.72;;;-0.79;55.49
61345;BME280;47216;42.656;23.232;2023-02-05T10:51:30;94344.09;;;-0.73;55.74
61345;BME280;47216;42.656;23.232;2023-02-05T10:54:00;94347.72;;;-0.67;55.40
61345;BME280;47216;42.656;23.232;2023-02-05T10:56:27;94344.72;;;-0.71;54.64
61345;BME280;47216;42.656;23.232;2023-02-05T10:58:54;94342.66;;;-0.75;53.49
61345;BME280;47216;42.656;23.232;2023-02-05T11:01:22;94351.34;;;-0.93;52.71
61345;BME280;47216;42.656;23.232;2023-02-05T11:03:51;94350.97;;;-0.81;53.26
61345;BME280;47216;42.656;23.232;2023-02-05T11:06:19;94344.09;;;-0.81;53.63
61345;BME280;47216;42.656;23.232;2023-02-05T11:08:47;94349.22;;;-0.81;53.90
61345;BME280;47216;42.656;23.232;2023-02-05T11:11:22;94352.41;;;-0.79;53.16
61345;BME280;47216;42.656;23.232;2023-02-05T11:13:54;94358.34;;;-0.78;53.17
61345;BME280;47216;42.656;23.232;2023-02-05T11:16:22;94355.47;;;-0.83;53.61
61345;BME280;47216;42.656;23.232;2023-02-05T11:18:56;94362.34;;;-0.76;53.64
61345;BME280;47216;42.656;23.232;2023-02-05T11:21:26;94360.72;;;-0.77;54.92
61345;BME280;47216;42.656;23.232;2023-02-05T11:24:12;94351.69;;;-0.56;56.73
61345;BME280;47216;42.656;23.232;2023-02-05T11:26:48;94354.66;;;-0.36;56.64
61345;BME280;47216;42.656;23.232;2023-02-05T11:29:18;94352.25;;;-0.30;54.53
61345;BME280;47216;42.656;23.232;2023-02-05T11:31:44;94349.16;;;-0.25;55.47
61345;BME280;47216;42.656;23.232;2023-02-05T11:34:13;94356.94;;;-0.10;55.07
61345;BME280;47216;42.656;23.232;2023-02-05T11:36:46;94343.94;;;-0.09;54.01
61345;BME280;47216;42.656;23.232;2023-02-05T11:39:19;94346.38;;;-0.15;52.45
61345;BME280;47216;42.656;23.232;2023-02-05T11:41:51;94346.22;;;-0.14;52.51
61345;BME280;47216;42.656;23.232;2023-02-05T11:44:23;94349.06;;;-0.09;53.04
61345;BME280;47216;42.656;23.232;2023-02-05T11:46:50;94356.94;;;-0.10;53.25
61345;BME280;47216;42.656;23.232;2023-02-05T11:49:21;94347.78;;;-0.05;52.76
61345;BME280;47216;42.656;23.232;2023-02-05T11:51:48;94354.22;;;-0.09;52.41
61345;BME280;47216;42.656;23.232;2023-02-05T11:54:18;94356.78;;;-0.09;52.81
61345;BME280;47216;42.656;23.232;2023-02-05T11:57:00;94346.13;;;0.03;54.29
61345;BME280;47216;42.656;23.232;2023-02-05T11:59:27;94347.50;;;0.13;53.13
61345;BME280;47216;42.656;23.232;2023-02-05T12:01:54;94350.53;;;0.17;54.13
61345;BME280;47216;42.656;23.232;2023-02-05T12:04:43;94350.28;;;0.27;53.85
61345;BME280;47216;42.656;23.232;2023-02-05T12:07:14;94352.97;;;0.33;54.27
61345;BME280;47216;42.656;23.232;2023-02-05T12:09:44;94351.28;;;0.26;53.55
61345;BME280;47216;42.656;23.232;2023-02-05T12:12:15;94345.16;;;0.27;54.14
61345;BME280;47216;42.656;23.232;2023-02-05T12:14:46;94347.22;;;0.31;53.06
61345;BME280;47216;42.656;23.232;2023-02-05T12:17:26;94340.78;;;0.35;52.43
61345;BME280;47216;42.656;23.232;2023-02-05T12:19:57;94337.22;;;0.36;51.98
61345;BME280;47216;42.656;23.232;2023-02-05T12:22:58;94349.09;;;0.37;51.29
61345;BME280;47216;42.656;23.232;2023-02-05T12:25:28;94354.28;;;0.29;51.71
61345;BME280;47216;42.656;23.232;2023-02-05T12:28:06;94351.72;;;0.29;53.72
61345;BME280;47216;42.656;23.232;2023-02-05T12:30:48;94345.00;;;0.28;54.48
61345;BME280;47216;42.656;23.232;2023-02-05T12:33:22;94353.66;;;0.27;54.88
61345;BME280;47216;42.656;23.232;2023-02-05T12:35:53;94353.31;;;0.30;55.20
61345;BME280;47216;42.656;23.232;2023-02-05T12:38:26;94357.47;;;0.31;54.63
61345;BME280;47216;42.656;23.232;2023-02-05T12:41:03;94360.72;;;0.25;54.94
61345;BME280;47216;42.656;23.232;2023-02-05T12:43:38;94355.56;;;0.25;55.78
61345;BME280;47216;42.656;23.232;2023-02-05T12:46:09;94354.78;;;0.25;56.31
61345;BME280;47216;42.656;23.232;2023-02-05T12:48:46;94359.13;;;0.24;57.60
61345;BME280;47216;42.656;23.232;2023-02-05T12:51:24;94367.09;;;0.29;60.32
61345;BME280;47216;42.656;23.232;2023-02-05T12:56:41;94361.16;;;-0.26;59.09
61345;BME280;47216;42.656;23.232;2023-02-05T12:59:14;94362.81;;;-0.33;59.88
61345;BME280;47216;42.656;23.232;2023-02-05T13:01:44;94356.69;;;-0.63;60.23
61345;BME280;47216;42.656;23.232;2023-02-05T13:04:17;94365.13;;;-1.10;61.74
61345;BME280;47216;42.656;23.232;2023-02-05T13:06:46;94355.22;;;-1.05;61.21